Terminal Aerodrome Forecast
Issued by NWS

Home | Current Version | Previous Version | Text Only | Print | Product List | Glossary On
Versions: 1 2 3 4 5 6 7 8 9 10 11 12 13 14 15 16 17 18 19 20 21 22 23 24 25 26 27 28 29 30 31 32 33 34 35 36 37 38 39 40 41 42 43 44 45 46 47 48 49 50
000
FTUS41 KRNK 152335
TAFBCB
TAF
KBCB 152335Z 1600/1624 21004KT P6SM BKN027 OVC150
     FM160600 27004KT 4SM BR BKN200
      TEMPO 1609/1612 1 1/2SM BR SCT006
     FM161300 29003KT P6SM SCT040
     FM161600 31007KT P6SM BKN040=

USA.gov is the U.S. government's official web portal to all federal, state and local government web resources and services.